SEAM/ATF METAR and TAF weather

Enter ICAO airport designator
Station Type Date Time Source
SEAM METAR 2021/03/02 21:00 UTC NOAA

SEAM 022100Z 18005KT 9999 -RA BKN020 OVC100 14/11 Q1023


Station Type Date Time Source
SEAM Decoded METAR 2021/03/02 21:00 UTC NOAA

Ambato / Chachoan, Ecuador (SEAM) 01-12S 078-34W
Mar 02, 2021 - 04:00 PM EST / 2021.03.02 2100 UTC
Wind: from the S (180 degrees) at 6 MPH (5 KT):0
Visibility: greater than 7 mile(s):0
Sky conditions: overcast
Weather: light rain
Temperature: 57 F (14 C)
Dew Point: 51 F (11 C)
Relative Humidity: 82%
Pressure (altimeter): 30.21 in. Hg (1023 hPa)
ob: SEAM 022100Z 18005KT 9999 -RA BKN020 OVC100 14/11 Q1023
cycle: 21

Station Type Date Time Source
SEAM TAF UTC NOAA

Error!

Example: see airport list